createdAt,value
2023-04-30T00:02:14.738Z,17.70
2023-04-30T00:04:42.997Z,20.50
2023-04-30T00:07:11.947Z,17.40
2023-04-30T00:09:41.492Z,18.60
2023-04-30T00:12:09.679Z,17.87
2023-04-30T00:14:37.898Z,20.80
2023-04-30T00:17:06.095Z,18.43
2023-04-30T00:19:34.335Z,19.70
2023-04-30T00:22:02.787Z,19.70
2023-04-30T00:24:31.002Z,20.10
2023-04-30T00:27:00.929Z,19.17
2023-04-30T00:29:29.124Z,18.57
2023-04-30T00:31:57.407Z,20.80
2023-04-30T00:34:25.783Z,18.87
2023-04-30T00:36:54.056Z,18.80
2023-04-30T00:39:22.227Z,19.77
2023-04-30T00:41:50.423Z,17.90
2023-04-30T00:44:20.049Z,20.70
2023-04-30T00:46:48.257Z,13.40
2023-04-30T00:49:16.415Z,18.47
2023-04-30T00:51:45.875Z,18.40
2023-04-30T00:54:14.421Z,19.00
2023-04-30T00:56:42.720Z,18.70
2023-04-30T00:59:10.962Z,17.07
2023-04-30T01:01:41.188Z,18.23
2023-04-30T01:04:09.496Z,17.77
2023-04-30T01:06:38.381Z,19.63
2023-04-30T01:09:06.849Z,19.03
2023-04-30T01:11:42.323Z,19.30
2023-04-30T01:14:13.983Z,19.80
2023-04-30T01:16:45.542Z,17.27
2023-04-30T01:19:20.613Z,17.80
2023-04-30T01:21:49.305Z,17.50
2023-04-30T01:24:24.554Z,16.27
2023-04-30T01:27:01.553Z,17.27
2023-04-30T01:29:32.177Z,17.03
2023-04-30T01:32:00.897Z,17.70
2023-04-30T01:34:29.095Z,17.60
2023-04-30T01:37:05.415Z,16.97
2023-04-30T01:39:39.667Z,15.97
2023-04-30T01:42:09.911Z,15.70
2023-04-30T01:44:47.543Z,15.73
2023-04-30T01:47:21.606Z,16.73
2023-04-30T01:49:53.836Z,18.10
2023-04-30T01:52:26.742Z,15.80
2023-04-30T01:54:57.341Z,13.63
2023-04-30T01:57:30.921Z,14.53
2023-04-30T02:00:00.635Z,13.40
2023-04-30T02:02:28.965Z,12.80
2023-04-30T02:04:57.187Z,12.73
2023-04-30T02:07:33.792Z,13.53
2023-04-30T02:10:01.984Z,14.27
2023-04-30T02:12:30.601Z,12.10
2023-04-30T02:14:58.881Z,12.20
2023-04-30T02:17:28.454Z,13.27
2023-04-30T02:19:56.734Z,12.40
2023-04-30T02:22:25.133Z,12.90
2023-04-30T02:24:55.643Z,12.13
2023-04-30T02:27:24.954Z,11.53
2023-04-30T02:29:53.566Z,12.30
2023-04-30T02:32:21.956Z,12.20
2023-04-30T02:34:51.662Z,11.93
2023-04-30T02:37:19.870Z,11.80
2023-04-30T02:39:48.121Z,12.43
2023-04-30T02:42:16.466Z,11.80
2023-04-30T02:44:44.642Z,11.37
2023-04-30T02:47:12.827Z,13.30
2023-04-30T02:49:41.082Z,12.60
2023-04-30T02:52:10.910Z,12.43
2023-04-30T02:54:39.069Z,11.13
2023-04-30T02:57:07.480Z,12.93
2023-04-30T02:59:35.715Z,12.50
2023-04-30T03:02:03.981Z,10.17
2023-04-30T03:04:32.261Z,11.23
2023-04-30T03:07:00.818Z,11.60
2023-04-30T03:09:32.103Z,11.90
2023-04-30T03:12:00.334Z,12.33
2023-04-30T03:14:28.544Z,12.60
2023-04-30T03:16:56.742Z,13.57
2023-04-30T03:19:25.636Z,11.27
2023-04-30T03:21:54.141Z,11.17
2023-04-30T03:24:22.410Z,11.10
2023-04-30T03:26:51.997Z,10.27
2023-04-30T03:29:20.374Z,10.27
2023-04-30T03:31:48.650Z,10.30
2023-04-30T03:34:17.504Z,10.37
2023-04-30T03:36:45.821Z,11.50
2023-04-30T03:39:14.149Z,11.60
2023-04-30T03:41:42.344Z,13.30
2023-04-30T03:44:15.617Z,13.70
2023-04-30T03:46:44.218Z,15.93
2023-04-30T03:49:12.595Z,9.93
2023-04-30T03:51:41.861Z,9.77
2023-04-30T03:54:10.545Z,9.37
2023-04-30T03:56:39.154Z,11.97
2023-04-30T03:59:07.766Z,14.03
2023-04-30T04:01:37.389Z,13.07
2023-04-30T04:04:05.762Z,11.70
2023-04-30T04:06:34.073Z,10.30
2023-04-30T04:09:02.324Z,10.27
2023-04-30T04:11:30.627Z,10.80
2023-04-30T04:13:58.840Z,10.53
2023-04-30T04:16:27.251Z,10.23
2023-04-30T04:18:56.883Z,11.53
2023-04-30T04:21:25.117Z,11.00
2023-04-30T04:23:53.315Z,10.90
2023-04-30T04:26:21.570Z,12.40
2023-04-30T04:28:50.127Z,11.97
2023-04-30T04:31:18.395Z,11.73
2023-04-30T04:33:46.890Z,9.77
2023-04-30T04:36:16.662Z,11.03
2023-04-30T04:38:44.855Z,10.27
2023-04-30T04:41:13.089Z,10.90
2023-04-30T04:43:42.480Z,11.93
2023-04-30T04:46:12.975Z,9.37
2023-04-30T04:48:42.856Z,10.97
2023-04-30T04:51:11.291Z,11.47
2023-04-30T04:53:40.967Z,9.97
2023-04-30T04:56:09.455Z,11.47
2023-04-30T04:58:37.920Z,11.77
2023-04-30T05:01:06.382Z,12.20
2023-04-30T05:03:37.048Z,10.57
2023-04-30T05:06:05.606Z,10.60
2023-04-30T05:08:33.882Z,11.63
2023-04-30T05:11:03.439Z,12.90
2023-04-30T05:13:31.737Z,11.67
2023-04-30T05:15:59.925Z,11.63
2023-04-30T05:18:28.113Z,11.47
2023-04-30T05:20:56.294Z,11.87
2023-04-30T05:23:24.553Z,9.30
2023-04-30T05:25:53.460Z,14.47
2023-04-30T05:28:23.116Z,13.87
2023-04-30T05:30:51.798Z,10.60
2023-04-30T05:33:20.036Z,16.53
2023-04-30T05:35:48.267Z,11.60
2023-04-30T05:38:16.494Z,11.20
2023-04-30T05:40:44.754Z,12.80
2023-04-30T05:43:12.988Z,28.90
2023-04-30T05:45:42.614Z,15.00
2023-04-30T05:48:10.895Z,28.97
2023-04-30T05:50:39.253Z,15.50
2023-04-30T05:53:08.488Z,31.80
2023-04-30T05:55:36.791Z,18.27
2023-04-30T05:58:05.035Z,26.63
2023-04-30T06:00:33.284Z,24.33
2023-04-30T06:03:02.904Z,13.20
2023-04-30T06:05:31.267Z,11.20
2023-04-30T06:07:59.503Z,12.40
2023-04-30T06:10:27.977Z,13.10
2023-04-30T06:12:56.265Z,18.87
2023-04-30T06:15:24.891Z,15.97
2023-04-30T06:17:53.171Z,13.60
2023-04-30T06:20:22.900Z,15.57
2023-04-30T06:22:51.129Z,15.80
2023-04-30T06:25:20.260Z,15.00
2023-04-30T06:27:48.478Z,14.77
2023-04-30T06:30:16.870Z,21.93
2023-04-30T06:32:45.155Z,24.70
2023-04-30T06:35:13.405Z,19.77
2023-04-30T06:37:43.082Z,25.90
2023-04-30T06:40:11.524Z,27.53
2023-04-30T06:42:39.808Z,31.43
2023-04-30T06:45:08.591Z,23.33
2023-04-30T06:47:38.326Z,26.57
2023-04-30T06:50:07.196Z,29.57
2023-04-30T06:52:35.371Z,20.30
2023-04-30T06:55:05.202Z,31.27
2023-04-30T06:57:33.799Z,22.60
2023-04-30T07:00:02.253Z,27.43
2023-04-30T07:02:30.514Z,29.50
2023-04-30T07:05:00.060Z,19.87
2023-04-30T07:07:28.560Z,21.87
2023-04-30T07:09:57.098Z,18.40
2023-04-30T07:12:27.101Z,20.33
2023-04-30T07:14:55.616Z,25.30
2023-04-30T07:17:26.109Z,19.53
2023-04-30T07:19:56.130Z,19.20
2023-04-30T07:22:24.603Z,25.10
2023-04-30T07:24:52.840Z,18.20
2023-04-30T07:27:21.094Z,24.03
2023-04-30T07:29:50.808Z,17.97
2023-04-30T07:32:19.006Z,19.80
2023-04-30T07:34:47.273Z,20.43
2023-04-30T07:37:16.028Z,19.00
2023-04-30T07:39:44.379Z,14.57
2023-04-30T07:42:12.659Z,22.00
2023-04-30T07:44:41.225Z,29.23
2023-04-30T07:47:10.864Z,17.37
2023-04-30T07:49:39.230Z,20.03
2023-04-30T07:52:10.881Z,19.57
2023-04-30T07:54:40.259Z,17.03
2023-04-30T07:57:08.679Z,25.30
2023-04-30T07:59:37.023Z,26.73
2023-04-30T08:02:05.405Z,20.40
2023-04-30T08:04:35.115Z,20.30
2023-04-30T08:07:04.610Z,25.70
2023-04-30T08:09:35.923Z,21.20
2023-04-30T08:12:05.040Z,20.00
2023-04-30T08:14:34.184Z,20.53
2023-04-30T08:17:03.072Z,17.90
2023-04-30T08:19:31.438Z,15.97
2023-04-30T08:22:01.376Z,18.27
2023-04-30T08:24:29.646Z,17.80
2023-04-30T08:26:57.964Z,15.83
2023-04-30T08:29:26.373Z,15.07
2023-04-30T08:31:54.760Z,15.60
2023-04-30T08:34:23.120Z,15.43
2023-04-30T08:36:51.440Z,17.03
2023-04-30T08:39:21.033Z,15.10
2023-04-30T08:41:53.510Z,10.57
2023-04-30T08:44:24.107Z,10.30
2023-04-30T08:46:54.911Z,9.03
2023-04-30T08:49:24.820Z,9.03
2023-04-30T08:51:53.488Z,11.70
2023-04-30T08:54:24.164Z,10.43
2023-04-30T08:56:52.416Z,9.30
2023-04-30T08:59:21.338Z,11.17
2023-04-30T09:01:52.185Z,10.37
2023-04-30T09:04:21.989Z,8.57
2023-04-30T09:06:50.271Z,10.00
2023-04-30T09:09:18.679Z,7.90
2023-04-30T09:11:48.205Z,6.40
2023-04-30T09:14:25.711Z,11.30
2023-04-30T09:16:54.216Z,8.40
2023-04-30T09:19:26.181Z,7.00
2023-04-30T09:21:54.651Z,5.70
2023-04-30T09:24:22.887Z,7.97
2023-04-30T09:26:52.820Z,8.07
2023-04-30T09:29:21.108Z,6.37
2023-04-30T09:31:49.409Z,8.00
2023-04-30T09:34:17.819Z,5.27
2023-04-30T09:36:54.833Z,6.67
2023-04-30T09:39:23.232Z,4.50
2023-04-30T09:41:53.443Z,5.37
2023-04-30T09:44:31.303Z,5.30
2023-04-30T09:47:00.264Z,4.50
2023-04-30T09:49:28.836Z,3.90
2023-04-30T09:51:57.532Z,4.33
2023-04-30T09:54:27.810Z,4.33
2023-04-30T09:56:58.080Z,3.83
2023-04-30T09:59:32.056Z,4.10
2023-04-30T10:02:01.771Z,5.43
2023-04-30T10:04:32.079Z,4.70
2023-04-30T10:07:00.901Z,4.27
2023-04-30T10:09:30.774Z,4.00
2023-04-30T10:12:01.901Z,2.23
2023-04-30T10:14:34.247Z,2.40
2023-04-30T10:17:05.594Z,1.80
2023-04-30T10:19:35.841Z,2.17
2023-04-30T10:22:04.124Z,2.57
2023-04-30T10:24:32.318Z,3.77
2023-04-30T10:27:03.123Z,3.77
2023-04-30T10:29:31.308Z,2.90
2023-04-30T10:32:01.255Z,2.43
2023-04-30T10:34:35.051Z,2.40
2023-04-30T10:37:07.888Z,2.50
2023-04-30T10:39:36.770Z,2.40
2023-04-30T10:42:07.892Z,3.90
2023-04-30T10:44:36.595Z,2.90
2023-04-30T10:47:05.573Z,2.90
2023-04-30T10:49:34.787Z,2.47
2023-04-30T10:52:03.543Z,2.73
2023-04-30T10:54:33.075Z,2.57
2023-04-30T10:57:14.049Z,2.50
2023-04-30T10:59:46.820Z,3.20
2023-04-30T11:02:17.976Z,2.60
2023-04-30T11:05:04.691Z,1.53
2023-04-30T11:07:33.069Z,2.50
2023-04-30T11:10:03.191Z,2.13
2023-04-30T11:12:32.742Z,2.27
2023-04-30T11:15:02.722Z,2.53
2023-04-30T11:17:31.028Z,3.37
2023-04-30T11:20:01.611Z,2.20
2023-04-30T11:22:35.883Z,3.40
2023-04-30T11:25:09.517Z,2.70
2023-04-30T11:27:40.004Z,3.13
2023-04-30T11:30:12.678Z,2.60
2023-04-30T11:32:41.738Z,2.50
2023-04-30T11:35:10.569Z,1.70
2023-04-30T11:37:39.960Z,2.00
2023-04-30T11:40:10.862Z,3.50
2023-04-30T11:42:44.901Z,3.03
2023-04-30T11:45:17.401Z,3.30
2023-04-30T11:47:46.805Z,3.70
2023-04-30T11:50:16.913Z,2.07
2023-04-30T11:52:50.263Z,6.47
2023-04-30T11:55:19.395Z,4.00
2023-04-30T11:57:50.237Z,6.33
2023-04-30T12:00:19.358Z,2.93
2023-04-30T12:02:48.534Z,8.30
2023-04-30T12:05:17.994Z,6.17
2023-04-30T12:07:47.427Z,3.70
2023-04-30T12:10:15.867Z,8.20
2023-04-30T12:12:44.811Z,4.10
2023-04-30T12:15:15.592Z,7.60
2023-04-30T12:17:44.164Z,19.70
2023-04-30T12:20:13.533Z,35.60
2023-04-30T12:22:42.282Z,1.57
2023-04-30T12:25:14.709Z,14.13
2023-04-30T12:27:43.323Z,15.53
2023-04-30T12:30:11.907Z,8.63
2023-04-30T12:32:42.589Z,8.80
2023-04-30T12:35:11.455Z,7.97
2023-04-30T12:37:43.363Z,7.10
2023-04-30T12:40:12.042Z,9.20
2023-04-30T12:42:40.450Z,7.53
2023-04-30T12:45:09.514Z,8.20
2023-04-30T12:47:40.670Z,7.50
2023-04-30T12:50:14.168Z,6.33
2023-04-30T12:52:44.021Z,5.70
2023-04-30T12:55:18.025Z,6.30
2023-04-30T12:58:01.147Z,7.63
2023-04-30T13:00:29.333Z,6.43
2023-04-30T13:02:57.946Z,7.00
2023-04-30T13:05:27.996Z,5.93
2023-04-30T13:08:03.454Z,5.23
2023-04-30T13:10:32.240Z,5.80
2023-04-30T13:13:00.560Z,5.20
2023-04-30T13:15:28.954Z,5.53
2023-04-30T13:17:57.305Z,5.47
2023-04-30T13:20:26.454Z,5.47
2023-04-30T13:22:56.024Z,4.87
2023-04-30T13:25:24.242Z,5.00
2023-04-30T13:27:52.426Z,5.53
2023-04-30T13:30:21.006Z,6.60
2023-04-30T13:32:49.287Z,6.00
2023-04-30T13:35:17.812Z,5.13
2023-04-30T13:37:47.938Z,4.90
2023-04-30T13:40:17.549Z,4.00
2023-04-30T13:42:47.034Z,4.27
2023-04-30T13:45:16.180Z,3.40
2023-04-30T13:47:44.596Z,3.90
2023-04-30T13:50:13.264Z,3.22
2023-04-30T13:52:41.470Z,3.77
2023-04-30T13:55:10.252Z,3.90
2023-04-30T13:57:39.872Z,2.63
2023-04-30T14:00:09.131Z,2.90
2023-04-30T14:02:37.563Z,3.53
2023-04-30T14:05:06.902Z,2.73
2023-04-30T14:07:35.381Z,2.87
2023-04-30T14:10:03.689Z,2.80
2023-04-30T14:12:31.964Z,3.40
2023-04-30T14:15:02.162Z,3.50
2023-04-30T14:17:31.494Z,3.50
2023-04-30T14:19:59.724Z,2.80
2023-04-30T14:22:28.059Z,3.03
2023-04-30T14:24:56.256Z,2.80
2023-04-30T14:27:25.363Z,3.30
2023-04-30T14:29:53.705Z,2.57
2023-04-30T14:32:23.456Z,2.70
2023-04-30T14:34:51.674Z,2.22
2023-04-30T14:37:19.885Z,2.40
2023-04-30T14:39:48.356Z,3.20
2023-04-30T14:42:16.673Z,2.90
2023-04-30T14:44:44.880Z,2.90
2023-04-30T14:47:13.515Z,3.70
2023-04-30T14:49:43.086Z,2.83
2023-04-30T14:52:11.283Z,2.70
2023-04-30T14:54:39.745Z,2.80
2023-04-30T14:57:08.914Z,2.13
2023-04-30T14:59:39.955Z,1.90
2023-04-30T15:02:09.235Z,3.03
2023-04-30T15:04:37.654Z,2.50
2023-04-30T15:07:07.393Z,2.40
2023-04-30T15:09:35.860Z,2.27
2023-04-30T15:12:04.204Z,2.87
2023-04-30T15:14:32.464Z,1.97
2023-04-30T15:17:01.077Z,1.77
2023-04-30T15:19:29.381Z,2.40
2023-04-30T15:21:57.946Z,2.40
2023-04-30T15:24:27.473Z,2.00
2023-04-30T15:26:55.746Z,1.90
2023-04-30T15:29:24.395Z,2.23
2023-04-30T15:31:54.350Z,1.83
2023-04-30T15:34:23.330Z,1.77
2023-04-30T15:36:51.677Z,1.57
2023-04-30T15:39:21.837Z,1.40
2023-04-30T15:41:51.511Z,2.20
2023-04-30T15:44:19.700Z,2.13
2023-04-30T15:46:48.089Z,1.90
2023-04-30T15:49:16.792Z,1.70
2023-04-30T15:51:45.493Z,2.90
2023-04-30T15:54:13.970Z,3.27
2023-04-30T15:56:42.671Z,2.80
2023-04-30T15:59:16.944Z,3.03
2023-04-30T16:01:46.632Z,2.77
2023-04-30T16:04:15.074Z,2.47
2023-04-30T16:06:43.417Z,2.50
2023-04-30T16:09:12.370Z,1.90
2023-04-30T16:11:40.785Z,1.90
2023-04-30T16:14:09.089Z,2.57
2023-04-30T16:16:38.635Z,2.00
2023-04-30T16:19:08.239Z,1.90
2023-04-30T16:21:38.461Z,1.77
2023-04-30T16:24:07.073Z,2.10
2023-04-30T16:26:36.148Z,1.83
2023-04-30T16:29:05.022Z,1.90
2023-04-30T16:31:33.437Z,1.93
2023-04-30T16:34:03.065Z,1.97
2023-04-30T16:36:32.807Z,2.17
2023-04-30T16:39:01.314Z,1.93
2023-04-30T16:41:29.496Z,1.90
2023-04-30T16:43:57.986Z,2.50
2023-04-30T16:46:26.342Z,1.10
2023-04-30T16:48:54.797Z,1.33
2023-04-30T16:51:24.395Z,1.50
2023-04-30T16:53:52.640Z,1.30
2023-04-30T16:56:21.358Z,1.73
2023-04-30T16:58:49.916Z,1.40
2023-04-30T17:01:18.233Z,1.87
2023-04-30T17:03:47.187Z,2.40
2023-04-30T17:06:15.707Z,1.27
2023-04-30T17:08:45.377Z,2.00
2023-04-30T17:11:13.600Z,2.03
2023-04-30T17:13:41.791Z,2.10
2023-04-30T17:16:10.061Z,1.60
2023-04-30T17:18:38.364Z,1.37
2023-04-30T17:21:06.521Z,2.53
2023-04-30T17:23:34.719Z,1.57
2023-04-30T17:26:05.614Z,1.77
2023-04-30T17:28:33.896Z,1.50
2023-04-30T17:31:03.961Z,1.53
2023-04-30T17:33:32.242Z,1.77
2023-04-30T17:36:00.450Z,1.57
2023-04-30T17:38:29.024Z,2.20
2023-04-30T17:40:57.716Z,2.10
2023-04-30T17:43:27.581Z,1.73
2023-04-30T17:45:57.241Z,1.53
2023-04-30T17:48:25.615Z,2.20
2023-04-30T17:50:53.784Z,1.63
2023-04-30T17:53:21.974Z,2.03
2023-04-30T17:55:50.180Z,2.10
2023-04-30T17:58:18.439Z,1.13
2023-04-30T18:00:48.526Z,2.47
2023-04-30T18:03:16.820Z,1.90
2023-04-30T18:05:45.150Z,1.73
2023-04-30T18:08:13.382Z,2.70
2023-04-30T18:10:41.676Z,4.70
2023-04-30T18:13:10.274Z,3.00
2023-04-30T18:15:38.622Z,2.90
2023-04-30T18:18:08.252Z,2.13
2023-04-30T18:20:37.062Z,2.50
2023-04-30T18:23:08.535Z,2.50
2023-04-30T18:25:38.039Z,2.80
2023-04-30T18:28:07.628Z,2.80
2023-04-30T18:30:36.132Z,2.30
2023-04-30T18:33:04.628Z,3.13
2023-04-30T18:35:34.421Z,2.80
2023-04-30T18:38:02.760Z,2.80
2023-04-30T18:40:30.976Z,2.97
2023-04-30T18:42:59.152Z,3.27
2023-04-30T18:45:27.469Z,2.67
2023-04-30T18:47:55.729Z,2.47
2023-04-30T18:50:24.267Z,2.90
2023-04-30T18:52:53.846Z,3.03
2023-04-30T18:55:22.120Z,2.73
2023-04-30T18:57:50.686Z,2.60
2023-04-30T19:00:18.990Z,2.60
2023-04-30T19:02:47.327Z,2.80
2023-04-30T19:05:15.733Z,3.20
2023-04-30T19:07:43.951Z,2.60
2023-04-30T19:10:13.753Z,2.90
2023-04-30T19:12:43.886Z,2.80
2023-04-30T19:15:14.954Z,3.23
2023-04-30T19:17:43.360Z,3.00
2023-04-30T19:20:12.460Z,2.30
2023-04-30T19:22:40.868Z,2.10
2023-04-30T19:25:09.523Z,2.57
2023-04-30T19:27:39.071Z,2.97
2023-04-30T19:30:07.922Z,2.30
2023-04-30T19:32:36.889Z,2.30
2023-04-30T19:35:05.239Z,2.20
2023-04-30T19:37:33.451Z,1.90
2023-04-30T19:40:01.654Z,2.23
2023-04-30T19:42:30.346Z,2.60
2023-04-30T19:44:59.888Z,2.20
2023-04-30T19:47:28.140Z,2.40
2023-04-30T19:49:56.827Z,2.70
2023-04-30T19:52:25.273Z,2.33
2023-04-30T19:54:53.479Z,2.57
2023-04-30T19:57:21.730Z,2.13
2023-04-30T19:59:49.873Z,2.07
2023-04-30T20:02:19.479Z,2.50
2023-04-30T20:04:47.748Z,2.70
2023-04-30T20:07:15.958Z,2.77
2023-04-30T20:09:44.156Z,1.80
2023-04-30T20:12:12.417Z,1.80
2023-04-30T20:14:40.884Z,2.57
2023-04-30T20:17:09.125Z,2.70
2023-04-30T20:19:38.942Z,2.80
2023-04-30T20:22:12.897Z,2.53
2023-04-30T20:24:44.301Z,2.83
2023-04-30T20:27:12.733Z,2.30
2023-04-30T20:29:41.486Z,2.83
2023-04-30T20:32:10.186Z,2.60
2023-04-30T20:34:40.021Z,3.30
2023-04-30T20:37:08.318Z,2.87
2023-04-30T20:39:37.146Z,3.23
2023-04-30T20:42:05.437Z,3.70
2023-04-30T20:44:34.664Z,2.87
2023-04-30T20:47:05.030Z,2.80
2023-04-30T20:49:33.441Z,2.90
2023-04-30T20:52:03.210Z,3.37
2023-04-30T20:54:31.692Z,3.00
2023-04-30T20:57:00.395Z,2.40
2023-04-30T20:59:28.657Z,2.87
2023-04-30T21:01:56.947Z,2.77
2023-04-30T21:04:25.262Z,2.10
2023-04-30T21:06:53.517Z,3.20
2023-04-30T21:09:23.279Z,2.23
2023-04-30T21:11:53.253Z,2.60
2023-04-30T21:14:21.714Z,3.00
2023-04-30T21:16:51.243Z,2.97
2023-04-30T21:19:19.545Z,2.77
2023-04-30T21:21:48.991Z,2.70
2023-04-30T21:24:17.314Z,3.07
2023-04-30T21:26:46.992Z,2.63
2023-04-30T21:29:15.500Z,3.90
2023-04-30T21:31:44.242Z,3.20
2023-04-30T21:34:12.687Z,2.37
2023-04-30T21:36:41.356Z,2.90
2023-04-30T21:39:09.573Z,3.67
2023-04-30T21:41:37.792Z,4.03
2023-04-30T21:44:07.395Z,3.70
2023-04-30T21:46:36.039Z,4.43
2023-04-30T21:49:04.429Z,4.40
2023-04-30T21:51:32.636Z,5.27
2023-04-30T21:54:00.880Z,5.57
2023-04-30T21:56:29.054Z,5.30
2023-04-30T21:58:57.282Z,5.60
2023-04-30T22:01:29.828Z,5.70
2023-04-30T22:03:58.667Z,6.40
2023-04-30T22:06:27.122Z,6.77
2023-04-30T22:08:55.405Z,7.47
2023-04-30T22:11:25.168Z,8.00
2023-04-30T22:13:53.346Z,7.87
2023-04-30T22:16:21.569Z,7.80
2023-04-30T22:18:51.547Z,7.63
2023-04-30T22:21:19.707Z,7.40
2023-04-30T22:23:48.679Z,6.57
2023-04-30T22:26:16.846Z,6.77
2023-04-30T22:28:45.008Z,6.43
2023-04-30T22:31:13.322Z,5.77
2023-04-30T22:33:41.585Z,5.53
2023-04-30T22:36:11.438Z,6.23
2023-04-30T22:38:39.677Z,5.50
2023-04-30T22:41:07.932Z,6.53
2023-04-30T22:43:36.759Z,6.90
2023-04-30T22:46:05.054Z,6.33
2023-04-30T22:48:33.621Z,6.73
2023-04-30T22:51:01.885Z,5.40
2023-04-30T22:53:31.497Z,5.90
2023-04-30T22:55:59.668Z,6.93
2023-04-30T22:58:27.958Z,5.47
2023-04-30T23:00:56.173Z,4.73
2023-04-30T23:03:24.402Z,4.13
2023-04-30T23:05:52.552Z,4.50
2023-04-30T23:08:20.791Z,4.10
2023-04-30T23:10:50.321Z,3.10
2023-04-30T23:13:18.469Z,4.00
2023-04-30T23:15:46.660Z,4.13
2023-04-30T23:18:14.882Z,3.90
2023-04-30T23:20:43.126Z,3.87
2023-04-30T23:23:11.294Z,3.43
2023-04-30T23:25:39.792Z,3.60
2023-04-30T23:28:09.503Z,3.87
2023-04-30T23:30:39.943Z,4.70
2023-04-30T23:33:08.247Z,3.90
2023-04-30T23:35:36.756Z,4.40
2023-04-30T23:38:05.058Z,4.43
2023-04-30T23:40:33.222Z,4.30
2023-04-30T23:43:01.692Z,4.13
2023-04-30T23:45:31.308Z,3.53
2023-04-30T23:47:59.599Z,3.67
2023-04-30T23:50:27.967Z,4.43
2023-04-30T23:52:56.587Z,4.03
2023-04-30T23:55:24.798Z,4.63
2023-04-30T23:57:52.991Z,4.10
